Findhorn, United Kingdom
Current Conditions -  °F | °C
As of 6:50 AM on Saturday 25 Oct 2014 (Local Time) from EGQK Reporting Station
Broken Clouds Broken Clouds  
Wind Chill: 45°   Ceiling: 3800
Heat Index: 48°   Visibility: 6mi
Dew Point: 43°   Wind: 8mph
Humidity: 82%   Direction: 170°S
Pressure: 29.47"   Gusts: NA
Location:  57.66°N, 3.61°W
Report Text: EGQK 250550Z AUTO 17007KT 9999 BKN038/// SCT220/// 09/06 Q0998
Loading
Personal Weather Stations






























Interactive Weather Map
Tropical Storm Tracking
New forecast layout! Learn more

10-Day Weather Forecast

Advertisements
Track Severe Weather on mobile